Elverum Starmoen Airport


Codes: ENHN/
Name: Elverum Starmoen Airport
City:
Country: Norway
Elevation: 659 ft.

Photos at Elverum Starmoen Airport


   Photos courtesy of SpottingLog. You can add your own sightings and photos by signing up for a free trial today.



No photos found.

Weather at Elverum Starmoen Airport


Time (UTC)DescriptionTempratureWindCloud coverageVisibilityPressureHumidity
13-Jun-2024 03:00Overcast Clouds7°C2 mph, NE86%10000m1009hPa96%
13-Jun-2024 06:00Light Rain10°C2 mph, E85%10000m1008hPa90%
13-Jun-2024 09:00Light Rain12°C7 mph, SE96%9374m1008hPa86%
13-Jun-2024 12:00Light Rain11°C4 mph, SE98%10000m1009hPa93%
13-Jun-2024 15:00Light Rain11°C2 mph, E99%10000m1009hPa85%
13-Jun-2024 18:00Light Rain13°C2 mph, E88%10000m1009hPa77%
13-Jun-2024 21:00Light Rain9°C2 mph, NE67%10000m1009hPa89%
14-Jun-2024 00:00Broken Clouds7°C2 mph, SE63%10000m1010hPa95%
14-Jun-2024 03:00Scattered Clouds7°C2 mph, SE38%10000m1011hPa95%
14-Jun-2024 06:00Broken Clouds10°C2 mph, S65%10000m1011hPa88%
14-Jun-2024 09:00Broken Clouds15°C2 mph, S80%10000m1010hPa57%
14-Jun-2024 12:00Light Rain16°C7 mph, S81%10000m1010hPa48%
14-Jun-2024 15:00Overcast Clouds15°C4 mph, S100%10000m1011hPa52%
14-Jun-2024 18:00Overcast Clouds15°C4 mph, S100%10000m1011hPa56%
14-Jun-2024 21:00Overcast Clouds10°C2 mph, S98%10000m1012hPa80%
15-Jun-2024 00:00Overcast Clouds7°C2 mph, SE89%10000m1013hPa93%
15-Jun-2024 03:00Overcast Clouds9°C2 mph, E98%10000m1012hPa88%
15-Jun-2024 06:00Overcast Clouds12°C4 mph, SE99%10000m1011hPa71%
15-Jun-2024 09:00Overcast Clouds13°C7 mph, SE100%10000m1011hPa75%
15-Jun-2024 12:00Light Rain12°C7 mph, E100%10000m1010hPa90%
15-Jun-2024 15:00Light Rain12°C7 mph, E100%10000m1008hPa89%
15-Jun-2024 18:00Light Rain14°C11 mph, E100%10000m1006hPa86%
15-Jun-2024 21:00Light Rain12°C16 mph, E100%7182m1005hPa96%
16-Jun-2024 00:00Light Rain11°C9 mph, S99%10000m1006hPa94%
16-Jun-2024 03:00Overcast Clouds10°C7 mph, S100%10000m1007hPa93%
16-Jun-2024 06:00Overcast Clouds11°C4 mph, S100%10000m1009hPa90%
16-Jun-2024 09:00Overcast Clouds13°C7 mph, S100%10000m1010hPa75%
16-Jun-2024 12:00Overcast Clouds18°C4 mph, S98%10000m1009hPa48%
16-Jun-2024 15:00Light Rain15°C7 mph, S100%10000m1009hPa66%
16-Jun-2024 18:00Light Rain12°C4 mph, S100%10000m1011hPa96%
16-Jun-2024 21:00Light Rain9°C4 mph, SE49%10000m1012hPa98%
17-Jun-2024 00:00Broken Clouds10°C4 mph, SE61%10000m1013hPa98%
17-Jun-2024 03:00Overcast Clouds10°C4 mph, N98%0m1014hPa99%
17-Jun-2024 06:00Overcast Clouds11°C4 mph, S99%10000m1015hPa89%
17-Jun-2024 09:00Overcast Clouds14°C4 mph, S98%10000m1015hPa73%
17-Jun-2024 12:00Light Rain17°C7 mph, S94%10000m1014hPa56%
17-Jun-2024 15:00Overcast Clouds18°C7 mph, S99%10000m1013hPa49%
17-Jun-2024 18:00Light Rain12°C2 mph, SE100%10000m1014hPa97%
17-Jun-2024 21:00Light Rain12°C4 mph, SE100%10000m1014hPa98%
18-Jun-2024 00:00Overcast Clouds11°C2 mph, SE99%2259m1014hPa99%